Time;durP1;ratioP1;P1;durP2;ratioP2;P2;SDS_P1;SDS_P2;PMS_P1;PMS_P2;Temp;Humidity;BMP_temperature;BMP_pressure;BME280_temperature;BME280_humidity;BME280_pressure;Samples;Min_cycle;Max_cycle;Signal;HPM_P1;HPM_P2
2022/03/04 00:02:31;;;;;;;50.55;30.50;;;;;;;8.88;47.55;100499.91;4990826;28;20049;-72
2022/03/04 00:05:16;;;;;;;50.53;23.73;;;;;;;8.91;48.28;100495.75;4973271;28;20049;-72
2022/03/04 00:08:01;;;;;;;43.03;25.50;;;;;;;8.87;48.07;100500.22;4978624;28;20046;-72
2022/03/04 00:10:46;;;;;;;43.55;23.70;;;;;;;8.91;47.92;100509.31;4992797;28;20049;-71
2022/03/04 00:13:32;;;;;;;53.28;30.13;;;;;;;8.90;48.00;100503.09;4992586;28;20524;-72
2022/03/04 00:16:17;;;;;;;48.00;30.80;;;;;;;9.04;48.14;100510.38;4992745;28;20061;-72
2022/03/04 00:19:09;;;;;;;46.17;23.98;;;;;;;9.08;48.59;100509.44;4992680;28;20257;-72
2022/03/04 00:21:54;;;;;;;56.65;30.95;;;;;;;9.06;48.11;100514.38;4992619;28;20046;-72
2022/03/04 00:24:38;;;;;;;50.05;30.35;;;;;;;9.12;47.75;100515.84;4992383;28;20050;-72
2022/03/04 00:27:24;;;;;;;37.97;23.38;;;;;;;9.01;48.32;100511.78;4992570;28;20054;-72
2022/03/04 00:30:09;;;;;;;50.30;25.48;;;;;;;9.06;48.31;100518.97;4992545;28;20050;-72
2022/03/04 00:32:54;;;;;;;108.15;34.28;;;;;;;9.01;48.32;100517.19;4986378;28;20053;-72
2022/03/04 00:35:39;;;;;;;60.22;31.90;;;;;;;8.89;48.42;100514.25;5031972;23;20038;-84
2022/03/04 00:38:24;;;;;;;45.40;24.27;;;;;;;9.08;48.27;100523.00;5018385;28;20716;-84
2022/03/04 00:41:08;;;;;;;49.35;23.55;;;;;;;8.94;48.59;100525.75;5032337;28;20403;-84
2022/03/04 00:43:53;;;;;;;43.33;24.65;;;;;;;9.05;48.40;100515.47;5018334;28;20049;-84
2022/03/04 00:46:38;;;;;;;54.83;29.85;;;;;;;9.00;48.87;100523.72;5012723;28;20044;-82
2022/03/04 00:49:23;;;;;;;41.25;23.42;;;;;;;9.09;48.63;100519.19;5018069;28;20049;-83
2022/03/04 00:52:08;;;;;;;41.35;22.48;;;;;;;8.80;49.37;100518.81;5018202;28;20415;-84
2022/03/04 00:54:52;;;;;;;38.40;24.27;;;;;;;8.76;49.77;100517.81;5012127;28;20057;-84
2022/03/04 00:57:37;;;;;;;38.60;23.50;;;;;;;8.91;49.82;100525.59;5032251;28;20060;-84
2022/03/04 01:00:22;;;;;;;45.38;24.30;;;;;;;8.85;50.28;100515.97;5037748;28;20044;-84
2022/03/04 01:03:06;;;;;;;49.42;30.10;;;;;;;8.82;50.76;100533.66;5037923;28;20049;-84
2022/03/04 01:05:52;;;;;;;48.80;29.90;;;;;;;8.87;49.83;100519.19;5033309;28;20056;-84
2022/03/04 01:08:37;;;;;;;50.60;30.52;;;;;;;8.89;50.03;100523.19;5036556;28;20259;-84
2022/03/04 01:11:22;;;;;;;37.95;24.67;;;;;;;8.96;50.26;100525.47;5036286;28;20056;-83
2022/03/04 01:14:08;;;;;;;42.10;24.27;;;;;;;9.11;50.47;100519.66;5041227;28;20048;-83
2022/03/04 01:16:53;;;;;;;51.97;30.80;;;;;;;9.19;49.96;100518.94;5040046;28;20055;-83
2022/03/04 01:19:38;;;;;;;45.05;24.45;;;;;;;9.17;49.95;100523.84;5041535;28;20068;-83
2022/03/04 01:22:22;;;;;;;46.63;23.60;;;;;;;9.35;49.91;100513.88;5041408;28;20067;-81
2022/03/04 01:25:08;;;;;;;38.80;22.23;;;;;;;9.40;49.75;100511.84;5038775;28;20072;-83
2022/03/04 01:27:53;;;;;;;42.83;23.90;;;;;;;9.43;48.89;100513.13;5035682;28;20402;-85
2022/03/04 01:30:38;;;;;;;53.00;30.38;;;;;;;9.44;49.13;100510.13;5036823;28;20032;-84
2022/03/04 01:33:23;;;;;;;52.45;31.38;;;;;;;9.44;49.37;100510.13;5041393;28;20516;-84
2022/03/04 01:36:08;;;;;;;41.17;23.95;;;;;;;9.58;48.66;100510.00;5036140;28;20048;-83
2022/03/04 01:38:53;;;;;;;35.65;22.75;;;;;;;9.64;49.50;100510.66;5041232;28;20532;-84
2022/03/04 01:41:37;;;;;;;54.42;30.17;;;;;;;9.64;48.68;100507.97;5041381;28;20044;-84
2022/03/04 01:44:23;;;;;;;41.28;24.85;;;;;;;9.63;47.88;100503.63;5040515;28;20056;-83
2022/03/04 01:47:08;;;;;;;44.45;24.50;;;;;;;9.62;48.12;100510.97;5036646;28;20048;-84
2022/03/04 01:49:53;;;;;;;46.97;26.23;;;;;;;9.47;47.97;100505.97;5040197;28;20106;-83
2022/03/04 01:52:38;;;;;;;52.08;31.80;;;;;;;9.48;48.27;100517.63;5040961;28;20048;-84
2022/03/04 01:55:23;;;;;;;47.70;29.17;;;;;;;9.56;49.68;100516.84;5037362;28;20052;-84
2022/03/04 01:58:09;;;;;;;56.80;29.25;;;;;;;9.69;49.49;100502.38;5040700;28;20060;-84
2022/03/04 02:00:54;;;;;;;38.67;22.88;;;;;;;9.76;49.84;100503.50;5040664;28;20044;-84
2022/03/04 02:03:39;;;;;;;40.42;23.85;;;;;;;9.87;49.65;100506.75;5032310;28;20048;-80
2022/03/04 02:06:24;;;;;;;45.20;26.20;;;;;;;9.78;49.67;100500.50;5034559;28;20048;-84
2022/03/04 02:09:09;;;;;;;52.65;31.65;;;;;;;9.72;48.93;100499.03;5040409;28;20529;-81
2022/03/04 02:11:53;;;;;;;53.83;31.83;;;;;;;9.84;50.23;100499.25;5036393;28;20049;-84
2022/03/04 02:14:38;;;;;;;53.43;31.90;;;;;;;9.81;49.68;100499.84;5033929;28;20049;-83
2022/03/04 02:17:22;;;;;;;53.87;28.67;;;;;;;9.78;49.98;100500.50;5040265;28;20052;-82
2022/03/04 02:20:08;;;;;;;40.60;24.13;;;;;;;9.77;47.74;100494.25;5040047;28;20271;-82
2022/03/04 02:22:52;;;;;;;;;;;;;;;9.77;49.11;100504.31;5040668;28;20057;-84
2022/03/04 02:25:38;;;;;;;50.50;27.83;;;;;;;9.82;48.63;100501.47;5036200;28;20301;-82
2022/03/04 02:28:23;;;;;;;46.05;28.42;;;;;;;9.78;48.44;100495.88;5034446;28;20418;-84
2022/03/04 02:31:07;;;;;;;47.20;28.75;;;;;;;9.77;49.67;100498.88;5040102;28;20048;-82
2022/03/04 02:33:52;;;;;;;45.35;24.90;;;;;;;9.71;50.83;100492.78;5033738;28;20052;-84
2022/03/04 02:36:38;;;;;;;44.50;24.13;;;;;;;9.74;50.96;100496.81;5034083;28;20521;-85
2022/03/04 02:39:24;;;;;;;60.05;32.33;;;;;;;9.75;51.44;100490.28;5040006;28;20052;-85
2022/03/04 02:42:08;;;;;;;43.28;23.88;;;;;;;9.81;51.76;100499.84;5039843;28;20056;-84
2022/03/04 02:44:53;;;;;;;39.20;24.65;;;;;;;9.69;52.26;100495.03;5013973;28;20053;-85
2022/03/04 02:47:38;;;;;;;55.47;31.63;;;;;;;9.65;52.68;100501.41;5020202;28;20049;-85
2022/03/04 02:50:22;;;;;;;41.78;24.58;;;;;;;9.63;52.60;100493.59;5014333;28;20072;-85
2022/03/04 02:53:16;;;;;;;42.03;23.10;;;;;;;9.60;53.48;100496.91;5024001;28;20055;-85
2022/03/04 02:56:01;;;;;;;58.13;30.40;;;;;;;9.60;53.32;100499.63;5034787;28;20045;-85
2022/03/04 02:58:46;;;;;;;42.00;24.42;;;;;;;9.56;53.48;100497.84;5033132;28;20048;-84
2022/03/04 03:01:31;;;;;;;41.58;24.40;;;;;;;9.52;53.19;100502.31;5033802;28;20521;-84
2022/03/04 03:04:15;;;;;;;52.67;31.00;;;;;;;9.76;51.90;100497.28;5033444;28;20056;-84
2022/03/04 03:07:00;;;;;;;40.60;23.63;;;;;;;9.57;51.77;100494.03;5033165;28;20517;-84
2022/03/04 03:09:45;;;;;;;49.40;30.10;;;;;;;9.57;51.56;100494.03;5039234;28;20048;-84
2022/03/04 03:12:30;;;;;;;45.63;28.23;;;;;;;9.58;52.37;100491.00;5033803;28;20048;-83
2022/03/04 03:15:15;;;;;;;51.40;30.67;;;;;;;9.41;53.04;100491.72;5036132;28;20044;-84
2022/03/04 03:18:00;;;;;;;51.72;30.10;;;;;;;9.42;53.92;100490.63;5039255;28;20052;-84
2022/03/04 03:20:44;;;;;;;50.80;28.97;;;;;;;9.60;52.65;100490.69;5039150;28;20064;-83
2022/03/04 03:23:29;;;;;;;38.47;22.98;;;;;;;9.74;52.05;100499.53;5033286;28;20060;-84
2022/03/04 03:26:14;;;;;;;55.05;30.50;;;;;;;9.78;51.24;100492.34;5033349;28;20053;-83
2022/03/04 03:28:59;;;;;;;50.53;28.63;;;;;;;9.62;52.07;100494.69;5034716;28;20053;-84
2022/03/04 03:31:44;;;;;;;37.53;22.13;;;;;;;9.50;53.35;100499.13;5038476;28;20044;-84
2022/03/04 03:34:29;;;;;;;46.38;23.40;;;;;;;9.38;55.03;100503.22;5032743;28;20044;-84
2022/03/04 03:37:14;;;;;;;34.00;22.13;;;;;;;9.41;54.54;100505.28;5039633;28;20053;-84
2022/03/04 03:39:59;;;;;;;32.80;21.00;;;;;;;9.19;55.46;100509.97;5033278;28;20048;-84
2022/03/04 03:42:43;;;;;;;48.63;28.10;;;;;;;9.06;55.70;100517.06;5038877;28;20049;-83
2022/03/04 03:45:28;;;;;;;46.60;27.73;;;;;;;9.21;55.25;100508.53;5035455;28;20049;-84
2022/03/04 03:48:13;;;;;;;37.30;22.50;;;;;;;9.11;53.76;100502.56;5038763;28;20544;-84
2022/03/04 03:50:58;;;;;;;40.35;23.05;;;;;;;9.00;53.28;100502.84;5038752;28;20072;-84
2022/03/04 03:53:43;;;;;;;37.50;23.50;;;;;;;9.10;52.52;100500.97;5038570;28;20064;-84
2022/03/04 03:56:28;;;;;;;41.92;24.35;;;;;;;9.08;52.88;100504.00;5032528;28;20049;-84
2022/03/04 03:59:13;;;;;;;38.47;23.02;;;;;;;9.01;53.09;100498.22;5038705;28;20048;-84
2022/03/04 04:02:02;;;;;;;35.63;21.92;;;;;;;9.06;53.63;100502.72;5038587;28;20048;-83
2022/03/04 04:04:47;;;;;;;51.03;29.30;;;;;;;9.15;53.11;100508.97;5036872;28;20049;-84
2022/03/04 04:07:32;;;;;;;37.33;22.95;;;;;;;9.00;53.17;100508.25;5041013;28;20084;-84
2022/03/04 04:10:17;;;;;;;36.88;22.13;;;;;;;9.10;53.83;100519.97;5040164;28;20053;-85
2022/03/04 04:13:02;;;;;;;39.70;22.77;;;;;;;9.05;54.39;100515.47;5038628;28;20056;-85
2022/03/04 04:15:47;;;;;;;;;;;;;;;9.08;53.79;100514.06;5032753;28;20406;-85
2022/03/04 04:18:32;;;;;;;43.50;27.70;;;;;;;9.02;53.82;100516.91;5038436;28;19913;-85
2022/03/04 04:21:17;;;;;;;45.58;27.45;;;;;;;9.02;54.01;100532.38;5038455;28;20045;-84
2022/03/04 04:24:02;;;;;;;35.80;22.23;;;;;;;9.05;55.61;100530.94;5031650;28;20048;-83
2022/03/04 04:26:47;;;;;;;36.70;22.63;;;;;;;8.77;54.50;100525.66;5038430;28;20547;-85
2022/03/04 04:29:32;;;;;;;43.72;24.35;;;;;;;8.33;55.36;100523.66;5038122;28;20056;-85
2022/03/04 04:32:16;;;;;;;49.05;28.23;;;;;;;8.45;56.43;100533.97;5038408;28;20049;-85
2022/03/04 04:35:02;;;;;;;36.90;21.48;;;;;;;8.62;55.85;100528.72;5036017;28;20052;-85
2022/03/04 04:37:46;;;;;;;40.17;23.23;;;;;;;8.55;55.98;100531.84;5038350;28;20052;-85
2022/03/04 04:40:31;;;;;;;47.77;27.83;;;;;;;8.47;55.70;100537.22;5038144;28;20048;-84
2022/03/04 04:43:51;;;;;;;36.25;20.90;;;;;;;8.26;57.43;100531.41;5040235;28;20517;-85
2022/03/04 04:46:35;;;;;;;50.30;26.50;;;;;;;8.33;57.31;100536.44;5036122;28;20040;-85
2022/03/04 04:49:20;;;;;;;;;;;;;;;8.37;56.34;100524.69;5042633;28;20049;-85
2022/03/04 04:52:06;;;;;;;46.25;25.58;;;;;;;8.24;57.07;100528.19;5039055;28;19932;-83
2022/03/04 04:54:52;;;;;;;46.35;27.67;;;;;;;8.26;55.13;100531.41;5040421;28;20406;-83
2022/03/04 04:57:37;;;;;;;46.97;27.38;;;;;;;8.22;56.18;100524.19;5042164;28;20051;-82
2022/03/04 05:00:21;;;;;;;39.42;22.67;;;;;;;8.20;55.33;100538.03;5041909;28;20056;-83
2022/03/04 05:03:06;;;;;;;36.50;21.02;;;;;;;8.13;55.43;100532.22;5041729;28;20048;-84
2022/03/04 05:05:52;;;;;;;33.72;21.30;;;;;;;8.16;54.73;100529.72;5035861;28;20163;-84
2022/03/04 05:08:37;;;;;;;44.00;26.33;;;;;;;8.04;55.13;100525.91;5041662;28;20156;-84
2022/03/04 05:11:22;;;;;;;42.60;24.55;;;;;;;8.18;56.76;100522.06;5041658;28;20048;-84
2022/03/04 05:14:07;;;;;;;33.78;19.95;;;;;;;7.98;55.94;100535.22;5041571;28;20064;-83
2022/03/04 05:16:51;;;;;;;45.20;27.23;;;;;;;8.03;54.67;100529.72;5016099;28;20045;-84
2022/03/04 05:19:36;;;;;;;36.60;21.67;;;;;;;7.94;55.70;100539.66;5021686;28;20057;-84
2022/03/04 05:22:21;;;;;;;45.92;26.30;;;;;;;7.97;55.18;100526.34;5015556;28;20057;-84
2022/03/04 05:25:06;;;;;;;37.87;20.40;;;;;;;8.08;55.33;100535.03;5023965;28;20524;-84
2022/03/04 05:27:51;;;;;;;49.20;26.65;;;;;;;8.18;55.09;100540.22;5031237;28;20505;-84
2022/03/04 05:30:36;;;;;;;36.47;21.20;;;;;;;8.14;55.37;100542.75;5035560;28;20053;-83
2022/03/04 05:33:21;;;;;;;34.08;21.10;;;;;;;8.10;54.85;100536.34;5040869;28;20068;-84
2022/03/04 05:36:06;;;;;;;32.38;19.00;;;;;;;8.18;54.58;100545.63;5035503;28;20048;-85
2022/03/04 05:38:51;;;;;;;35.08;19.02;;;;;;;8.27;55.13;100537.63;5034609;28;20049;-84
2022/03/04 05:41:35;;;;;;;41.40;23.77;;;;;;;8.18;56.75;100545.63;5041161;28;20513;-85
2022/03/04 05:44:20;;;;;;;32.90;18.58;;;;;;;8.25;55.27;100534.41;5037104;28;20052;-85
2022/03/04 05:47:05;;;;;;;35.90;20.20;;;;;;;8.09;54.76;100540.16;5040578;28;20049;-82
2022/03/04 05:49:50;;;;;;;48.50;26.65;;;;;;;7.90;55.16;100549.50;5035805;28;20497;-84
2022/03/04 05:52:35;;;;;;;45.78;25.95;;;;;;;7.90;54.72;100544.06;5040702;28;20040;-83
2022/03/04 05:55:19;;;;;;;40.13;21.77;;;;;;;7.71;55.61;100547.69;5019445;28;20053;-84
2022/03/04 05:58:05;;;;;;;36.97;20.40;;;;;;;7.64;54.96;100549.97;5026335;28;20037;-84
2022/03/04 06:00:50;;;;;;;51.38;26.83;;;;;;;7.61;55.55;100553.28;5039308;28;20391;-83
2022/03/04 06:03:36;;;;;;;33.67;20.75;;;;;;;7.62;55.32;100549.47;5039988;28;20443;-82
2022/03/04 06:06:20;;;;;;;39.38;24.15;;;;;;;7.65;56.86;100559.72;5026601;28;20068;-83
2022/03/04 06:09:06;;;;;;;34.60;19.83;;;;;;;7.77;57.58;100547.59;5026042;28;20040;-83
2022/03/04 06:11:50;;;;;;;46.58;26.50;;;;;;;7.79;55.56;100556.19;5034624;28;20052;-83
2022/03/04 06:14:35;;;;;;;43.85;24.85;;;;;;;7.89;56.10;100559.50;5039339;28;20088;-83
2022/03/04 06:17:19;;;;;;;36.13;20.92;;;;;;;7.96;54.95;100561.81;5036316;28;20048;-83
2022/03/04 06:20:05;;;;;;;54.03;29.52;;;;;;;7.80;55.25;100576.75;5020472;28;20049;-84
2022/03/04 06:22:50;;;;;;;62.45;27.35;;;;;;;7.82;55.68;100575.38;5038558;28;20040;-81
2022/03/04 06:25:35;;;;;;;41.95;23.98;;;;;;;7.87;54.81;100572.56;5036349;28;20414;-85
2022/03/04 06:28:19;;;;;;;43.93;25.93;;;;;;;7.92;55.66;100574.38;5032646;28;20049;-81
2022/03/04 06:31:04;;;;;;;54.73;28.10;;;;;;;7.21;55.89;100572.94;5028886;28;20068;-81
2022/03/04 06:33:49;;;;;;;41.00;19.98;;;;;;;7.36;56.50;100572.69;5031676;28;20410;-80
2022/03/04 06:36:34;;;;;;;49.13;23.10;;;;;;;7.36;56.08;100580.81;5029179;28;20072;-78
2022/03/04 06:39:19;;;;;;;40.40;23.77;;;;;;;7.59;55.66;100582.53;5027033;28;20049;-78
2022/03/04 06:42:04;;;;;;;56.67;26.27;;;;;;;7.68;55.58;100577.22;5045731;22;20053;-73
2022/03/04 06:44:49;;;;;;;39.33;22.42;;;;;;;7.66;55.77;100585.69;4991364;28;20053;-73
2022/03/04 06:47:34;;;;;;;45.70;23.08;;;;;;;7.61;55.59;100595.78;4983534;28;20054;-72
2022/03/04 06:50:19;;;;;;;51.60;28.75;;;;;;;7.32;56.78;100604.91;4983301;28;20061;-73
2022/03/04 06:53:04;;;;;;;44.13;22.98;;;;;;;7.29;57.54;100599.31;4982044;28;20525;-72
2022/03/04 06:55:49;;;;;;;41.78;24.05;;;;;;;7.32;56.90;100606.81;4978232;28;20041;-72
2022/03/04 06:58:34;;;;;;;45.28;25.35;;;;;;;7.35;56.45;100608.94;4974509;28;20057;-72
2022/03/04 07:01:19;;;;;;;55.50;30.58;;;;;;;7.29;57.99;100616.34;4998578;28;20069;-72
2022/03/04 07:04:04;;;;;;;46.38;23.27;;;;;;;7.33;57.08;100611.13;4993911;28;20065;-72
2022/03/04 07:06:49;;;;;;;53.55;26.77;;;;;;;7.47;56.87;100617.38;4992889;28;20046;-72
2022/03/04 07:09:34;;;;;;;54.53;33.67;;;;;;;7.61;56.11;100618.25;4993945;28;20049;-72
2022/03/04 07:12:19;;;;;;;53.75;31.77;;;;;;;7.72;55.52;100619.63;4971738;28;20406;-72
2022/03/04 07:15:05;;;;;;;53.90;30.65;;;;;;;7.65;55.77;100621.94;4974440;28;20082;-72
2022/03/04 07:17:49;;;;;;;63.22;38.25;;;;;;;7.83;55.65;100622.16;4974399;28;20045;-71
2022/03/04 07:20:34;;;;;;;53.00;28.67;;;;;;;8.04;55.05;100612.56;4974511;28;20041;-72
2022/03/04 07:23:20;;;;;;;56.85;35.90;;;;;;;8.06;55.63;100619.28;4979717;28;20406;-72
2022/03/04 07:26:08;;;;;;;58.95;35.50;;;;;;;8.15;55.96;100616.69;4974516;28;20061;-72
2022/03/04 07:28:53;;;;;;;66.90;35.30;;;;;;;8.05;55.85;100622.28;4974273;28;20053;-72
2022/03/04 07:31:39;;;;;;;67.93;36.72;;;;;;;8.08;56.10;100622.47;4974174;28;20054;-72
2022/03/04 07:34:24;;;;;;;54.53;26.05;;;;;;;8.28;55.56;100623.97;4979413;28;20046;-72
2022/03/04 07:37:09;;;;;;;55.50;28.08;;;;;;;7.99;55.95;100624.28;4973219;28;20049;-71
2022/03/04 07:39:54;;;;;;;51.05;26.80;;;;;;;8.36;55.67;100628.75;4973476;28;20045;-72
2022/03/04 07:42:40;;;;;;;54.35;26.88;;;;;;;8.58;55.44;100628.78;4974050;28;20050;-72
2022/03/04 07:45:25;;;;;;;76.47;35.00;;;;;;;8.59;55.41;100632.31;4977209;28;20532;-72
2022/03/04 07:48:10;;;;;;;57.28;26.45;;;;;;;8.71;55.33;100632.59;4979061;28;20426;-71
2022/03/04 07:50:55;;;;;;;52.45;27.65;;;;;;;8.42;56.53;100632.97;4978442;28;20050;-72
2022/03/04 07:53:39;;;;;;;49.07;26.73;;;;;;;8.30;58.23;100634.56;4973400;28;20525;-72
2022/03/04 07:56:24;;;;;;;49.53;28.02;;;;;;;8.44;56.73;100638.84;4987419;28;20280;-72
2022/03/04 07:59:09;;;;;;;58.60;27.35;;;;;;;8.70;56.22;100638.31;4993504;28;20061;-72
2022/03/04 08:01:54;;;;;;;45.10;25.90;;;;;;;8.88;56.34;100635.47;4970809;28;20402;-72
2022/03/04 08:04:39;;;;;;;59.90;27.13;;;;;;;8.86;56.72;100642.31;4973758;28;20414;-72
2022/03/04 08:07:24;;;;;;;110.25;55.13;;;;;;;8.70;57.03;100633.69;4973509;28;20050;-72
2022/03/04 08:10:11;;;;;;;48.22;26.92;;;;;;;8.90;54.08;100643.28;4975965;28;20046;-72
2022/03/04 08:12:55;;;;;;;60.42;32.95;;;;;;;9.10;53.17;100642.03;4973397;28;20053;-72
2022/03/04 08:15:41;;;;;;;50.65;27.33;;;;;;;9.07;53.01;100640.75;4978323;28;20046;-71
2022/03/04 08:18:26;;;;;;;48.40;26.10;;;;;;;9.21;53.31;100644.19;4992306;28;20053;-74
2022/03/04 08:21:11;;;;;;;48.40;27.58;;;;;;;9.06;53.31;100643.75;4993107;28;20054;-72
2022/03/04 08:23:57;;;;;;;56.03;32.92;;;;;;;9.11;53.26;100635.50;4973477;28;20050;-70
2022/03/04 08:26:42;;;;;;;64.35;33.45;;;;;;;9.35;52.70;100642.22;4982900;28;20486;-70
2022/03/04 08:29:28;;;;;;;70.60;35.08;;;;;;;9.24;52.75;100646.31;4970265;28;20062;-70
2022/03/04 08:32:13;;;;;;;45.83;25.77;;;;;;;9.65;52.80;100645.31;4990546;28;20410;-70
2022/03/04 08:34:59;;;;;;;53.13;27.85;;;;;;;9.50;52.67;100651.91;4954167;29;20062;-70
2022/03/04 08:37:45;;;;;;;62.85;33.53;;;;;;;9.41;54.15;100649.13;4954449;29;20079;-70
2022/03/04 08:40:30;;;;;;;62.45;33.38;;;;;;;9.53;54.13;100650.50;4964171;28;20081;-69
2022/03/04 08:43:15;;;;;;;66.03;35.33;;;;;;;9.84;53.29;100662.19;4974547;28;20409;-70
2022/03/04 08:46:02;;;;;;;53.75;28.08;;;;;;;10.09;51.54;100658.78;4963506;28;20429;-70
2022/03/04 08:48:47;;;;;;;67.20;34.42;;;;;;;10.07;51.34;100662.91;4973571;28;20498;-70
2022/03/04 08:51:31;;;;;;;53.45;25.63;;;;;;;10.31;51.00;100665.31;4973584;28;20066;-70
2022/03/04 08:54:16;;;;;;;53.38;26.83;;;;;;;10.47;50.46;100661.03;4973400;28;20041;-70
2022/03/04 08:57:02;;;;;;;53.60;27.73;;;;;;;10.68;50.53;100671.00;4973617;28;20418;-70
2022/03/04 08:59:46;;;;;;;56.38;28.55;;;;;;;10.60;50.18;100662.84;4973527;28;20066;-70
2022/03/04 09:02:31;;;;;;;54.03;26.30;;;;;;;10.81;48.89;100669.28;4973573;28;20042;-70
2022/03/04 09:05:17;;;;;;;52.25;24.75;;;;;;;10.90;47.70;100659.19;4973569;28;20062;-70
2022/03/04 09:08:02;;;;;;;50.13;24.80;;;;;;;11.17;47.66;100665.47;4971979;28;20047;-70
2022/03/04 09:10:46;;;;;;;42.85;23.45;;;;;;;11.28;47.16;100655.84;4966296;28;20070;-68
2022/03/04 09:13:33;;;;;;;49.83;25.98;;;;;;;11.41;46.77;100652.97;4971594;28;20042;-71
2022/03/04 09:16:18;;;;;;;54.70;29.98;;;;;;;11.26;44.79;100649.94;4972104;28;20521;-71
2022/03/04 09:19:03;;;;;;;46.33;23.70;;;;;;;11.47;45.09;100646.22;4972865;28;20494;-70
2022/03/04 09:21:48;;;;;;;54.35;29.17;;;;;;;11.50;45.58;100648.31;4953642;29;20043;-71
2022/03/04 09:24:33;;;;;;;45.33;25.65;;;;;;;11.63;42.58;100649.22;4963815;28;20069;-71
2022/03/04 09:27:18;;;;;;;41.70;23.35;;;;;;;11.95;43.60;100645.16;4972309;28;20042;-72
2022/03/04 09:30:04;;;;;;;43.22;22.77;;;;;;;11.89;41.27;100650.00;4970808;28;20054;-72
2022/03/04 09:32:49;;;;;;;65.32;30.52;;;;;;;11.99;40.69;100643.38;4974938;28;20047;-70
2022/03/04 09:35:34;;;;;;;43.38;21.52;;;;;;;12.08;41.41;100646.09;4977543;28;20045;-70
2022/03/04 09:38:20;;;;;;;40.97;21.40;;;;;;;12.20;39.98;100646.19;4977417;28;20038;-70
2022/03/04 09:41:05;;;;;;;46.42;26.13;;;;;;;12.32;41.18;100646.31;4976401;28;20035;-71
2022/03/04 09:43:51;;;;;;;48.33;26.08;;;;;;;12.34;39.40;100642.09;4975279;28;20045;-71
2022/03/04 09:46:36;;;;;;;45.30;22.77;;;;;;;12.76;39.12;100639.47;4978563;28;20407;-71
2022/03/04 09:49:26;;;;;;;46.72;24.20;;;;;;;12.46;36.33;100633.22;4976853;28;20050;-70
2022/03/04 09:52:10;;;;;;;40.33;22.08;;;;;;;12.64;38.35;100640.19;4976792;28;20054;-71
2022/03/04 09:54:55;;;;;;;368.83;55.40;;;;;;;12.82;38.43;100640.88;4976283;28;20042;-69
2022/03/04 09:57:41;;;;;;;41.25;22.63;;;;;;;13.36;40.82;100641.75;4977021;28;20051;-69
2022/03/04 10:00:26;;;;;;;38.72;21.90;;;;;;;13.34;34.09;100638.56;4977996;28;20043;-67
2022/03/04 10:03:22;;;;;;;;;;;;;;;12.84;32.91;100639.44;4978504;28;20053;-68
2022/03/04 10:06:06;;;;;;;;;;;;;;;12.70;33.04;100633.41;4974602;28;19913;-69
2022/03/04 10:08:52;;;;;;;;;;;;;;;12.41;31.97;100634.22;4979208;28;20340;-69
2022/03/04 10:11:38;;;;;;;31.50;17.60;;;;;;;12.40;32.77;100627.16;4975179;28;20805;-70
2022/03/04 10:14:23;;;;;;;28.80;16.65;;;;;;;12.31;32.33;100640.06;4976947;28;20414;-70
2022/03/04 10:17:14;;;;;;;31.38;15.35;;;;;;;12.11;31.51;100629.09;4977615;28;20227;-70
2022/03/04 10:20:03;;;;;;;26.25;14.00;;;;;;;12.03;31.77;100629.94;4974687;28;20054;-70
2022/03/04 10:22:48;;;;;;;28.38;14.52;;;;;;;12.08;31.03;100621.56;4975432;28;20035;-70
2022/03/04 10:25:33;;;;;;;23.83;13.25;;;;;;;11.90;31.15;100626.28;4975366;28;20053;-69
2022/03/04 10:28:20;;;;;;;22.15;11.45;;;;;;;11.92;31.86;100616.66;4977454;28;20073;-70
2022/03/04 10:31:07;;;;;;;27.80;15.40;;;;;;;11.83;31.25;100624.06;4975991;28;20043;-69
2022/03/04 10:34:06;;;;;;;33.00;17.05;;;;;;;11.82;31.38;100622.47;4976161;28;20522;-69
2022/03/04 10:36:55;;;;;;;29.77;16.13;;;;;;;11.89;31.90;100620.03;4956854;28;20039;-74
2022/03/04 10:40:05;;;;;;;37.20;16.63;;;;;;;11.95;31.57;100621.44;4965204;28;20039;-70
2022/03/04 10:43:05;;;;;;;30.70;14.40;;;;;;;12.11;32.15;100612.72;4970045;28;20043;-69
2022/03/04 10:46:04;;;;;;;27.02;14.10;;;;;;;12.20;31.41;100616.19;4976594;28;20054;-69
2022/03/04 10:48:55;;;;;;;29.33;17.13;;;;;;;12.15;31.69;100608.22;4975684;28;20051;-70
2022/03/04 10:51:40;;;;;;;30.88;15.20;;;;;;;12.20;31.11;100614.28;4978210;28;20406;-69
2022/03/04 10:54:25;;;;;;;33.17;15.75;;;;;;;12.23;31.35;100604.66;4977296;28;20078;-70
2022/03/04 10:57:10;;;;;;;32.67;13.75;;;;;;;12.41;31.00;100604.22;4977191;28;20046;-70
2022/03/04 10:59:56;;;;;;;24.75;12.70;;;;;;;12.37;31.05;100595.13;4975082;28;20494;-70
2022/03/04 11:02:43;;;;;;;28.83;16.55;;;;;;;12.31;30.60;100599.16;4976146;28;20494;-70
2022/03/04 11:05:28;;;;;;;40.15;17.65;;;;;;;12.34;30.92;100600.44;4977380;28;20417;-70
2022/03/04 11:08:14;;;;;;;28.60;16.05;;;;;;;12.40;31.43;100594.44;4976110;28;20042;-70
2022/03/04 11:11:00;;;;;;;30.75;17.35;;;;;;;12.51;30.78;100589.41;4956859;29;20047;-70
2022/03/04 11:13:45;;;;;;;34.28;18.00;;;;;;;12.67;31.19;100593.16;4956652;28;20050;-70
2022/03/04 11:16:31;;;;;;;30.77;15.55;;;;;;;12.65;31.12;100589.94;4956530;29;20058;-70
2022/03/04 11:19:18;;;;;;;34.30;17.48;;;;;;;12.74;30.92;100578.97;4956707;29;20039;-70
2022/03/04 11:22:03;;;;;;;36.47;18.95;;;;;;;12.71;30.25;100577.72;4958810;28;20039;-69
2022/03/04 11:24:51;;;;;;;23.85;13.27;;;;;;;12.74;30.33;100576.25;4968841;28;20045;-70
2022/03/04 11:27:47;;;;;;;27.73;14.52;;;;;;;12.69;29.29;100569.06;4969250;28;20510;-70
2022/03/04 11:30:38;;;;;;;22.85;11.55;;;;;;;12.60;28.25;100564.78;4973456;28;20050;-69
2022/03/04 11:33:31;;;;;;;20.00;11.98;;;;;;;12.74;29.56;100566.16;4971625;28;20034;-69
2022/03/04 11:36:22;;;;;;;23.10;14.65;;;;;;;12.92;29.67;100553.13;4973272;28;20043;-69
2022/03/04 11:39:15;;;;;;;24.92;14.45;;;;;;;13.03;29.00;100556.25;4977861;28;20043;-70
2022/03/04 11:42:03;;;;;;;31.58;14.70;;;;;;;13.14;30.08;100547.34;4969148;28;20044;-69
2022/03/04 11:44:53;;;;;;;22.05;11.35;;;;;;;13.23;29.55;100544.53;4968969;28;20075;-70
2022/03/04 11:47:40;;;;;;;25.80;14.43;;;;;;;13.62;28.69;100549.38;4974456;28;20035;-70
2022/03/04 11:50:33;;;;;;;23.00;11.93;;;;;;;13.81;28.61;100542.59;4975813;28;20416;-70
2022/03/04 11:53:20;;;;;;;20.98;11.82;;;;;;;14.26;27.41;100537.78;4975400;28;20410;-70
2022/03/04 11:56:11;;;;;;;18.33;11.23;;;;;;;14.65;25.84;100538.19;4975225;28;20110;-71
2022/03/04 11:58:59;;;;;;;25.00;10.85;;;;;;;14.78;25.86;100532.31;4960210;28;20425;-70
2022/03/04 12:01:48;;;;;;;19.20;11.38;;;;;;;15.25;24.11;100518.75;4975513;28;20411;-70
2022/03/04 12:04:35;;;;;;;22.58;11.48;;;;;;;15.83;22.19;100516.34;4967618;28;20070;-72
2022/03/04 12:07:34;;;;;;;17.15;10.13;;;;;;;15.33;21.27;100514.28;4977461;28;20058;-71
2022/03/04 12:10:23;;;;;;;20.60;8.93;;;;;;;14.93;21.66;100522.59;4979486;28;20039;-71
2022/03/04 12:13:29;;;;;;;12.10;8.00;;;;;;;14.86;21.20;100517.69;4973047;28;20050;-71
2022/03/04 12:16:14;;;;;;;19.45;8.50;;;;;;;14.74;22.18;100516.94;4969287;28;20042;-69
2022/03/04 12:18:59;;;;;;;15.48;8.65;;;;;;;14.62;21.90;100512.31;4981635;28;20523;-70
2022/03/04 12:21:47;;;;;;;13.80;7.47;;;;;;;14.65;22.95;100511.63;4979066;28;20041;-71
2022/03/04 12:24:33;;;;;;;17.83;9.93;;;;;;;14.77;23.53;100508.03;4965179;28;20050;-71
2022/03/04 12:27:39;;;;;;;18.83;9.07;;;;;;;14.70;23.38;100507.84;4975149;28;20045;-71
2022/03/04 12:30:23;;;;;;;30.65;10.43;;;;;;;14.62;23.51;100495.09;4978818;28;20050;-71
2022/03/04 12:33:10;;;;;;;39.60;9.23;;;;;;;14.58;21.94;100500.44;4979724;28;20494;-71
2022/03/04 12:35:57;;;;;;;14.20;7.55;;;;;;;14.40;21.22;100490.94;4980216;28;20073;-71
2022/03/04 12:38:45;;;;;;;19.27;9.32;;;;;;;14.41;22.70;100493.34;4980152;28;20406;-71
2022/03/04 12:41:33;;;;;;;24.23;9.68;;;;;;;14.32;22.41;100495.38;4994021;28;20062;-71
2022/03/04 12:44:18;;;;;;;19.23;8.63;;;;;;;14.26;22.70;100482.28;4983447;28;20395;-71